createdAt,value
2018-12-31T00:01:34.981Z,9.73
2018-12-31T00:04:05.407Z,10.50
2018-12-31T00:06:54.870Z,12.17
2018-12-31T00:09:25.260Z,9.67
2018-12-31T00:12:14.711Z,13.43
2018-12-31T00:14:57.139Z,12.07
2018-12-31T00:17:39.224Z,9.57
2018-12-31T00:20:21.271Z,16.83
2018-12-31T00:23:03.497Z,15.03
2018-12-31T00:25:45.599Z,12.53
2018-12-31T00:28:27.879Z,10.10
2018-12-31T00:31:10.128Z,13.30
2018-12-31T00:33:51.837Z,13.90
2018-12-31T00:36:34.203Z,13.17
2018-12-31T00:39:16.240Z,13.53
2018-12-31T00:41:46.787Z,15.93
2018-12-31T00:44:36.317Z,11.90
2018-12-31T00:47:18.413Z,10.87
2018-12-31T00:50:00.755Z,11.73
2018-12-31T00:52:43.055Z,11.80
2018-12-31T00:55:22.890Z,15.57
2018-12-31T00:58:04.895Z,12.47
2018-12-31T01:00:46.961Z,16.40
2018-12-31T01:03:17.396Z,16.37
2018-12-31T01:06:06.847Z,12.60
2018-12-31T01:08:49.959Z,13.27
2018-12-31T01:11:31.919Z,11.83
2018-12-31T01:14:02.284Z,8.27
2018-12-31T01:16:51.695Z,14.83
2018-12-31T01:19:34.171Z,10.67
2018-12-31T01:22:16.195Z,12.17
2018-12-31T01:24:58.347Z,10.30
2018-12-31T01:27:40.417Z,14.10
2018-12-31T01:30:22.299Z,9.00
2018-12-31T01:33:04.773Z,11.47
2018-12-31T01:35:47.067Z,12.13
2018-12-31T01:38:28.915Z,11.83
2018-12-31T01:40:59.491Z,10.30
2018-12-31T01:43:49.203Z,9.07
2018-12-31T01:46:31.023Z,11.93
2018-12-31T01:49:13.334Z,8.40
2018-12-31T01:51:43.965Z,6.37
2018-12-31T01:54:32.820Z,7.93
2018-12-31T01:57:15.171Z,8.37
2018-12-31T01:59:56.935Z,13.87
2018-12-31T02:02:39.159Z,8.33
2018-12-31T02:05:21.283Z,6.37
2018-12-31T02:08:03.383Z,10.50
2018-12-31T02:10:46.653Z,13.37
2018-12-31T02:13:28.591Z,11.53
2018-12-31T02:16:11.043Z,15.23
2018-12-31T02:18:53.123Z,13.53
2018-12-31T02:21:35.196Z,10.37
2018-12-31T02:24:05.659Z,13.50
2018-12-31T02:26:55.127Z,13.07
2018-12-31T02:29:36.958Z,15.23
2018-12-31T02:32:19.213Z,9.53
2018-12-31T02:35:01.382Z,15.43
2018-12-31T02:37:31.721Z,13.20
2018-12-31T02:40:13.943Z,15.60
2018-12-31T02:42:56.330Z,9.20
2018-12-31T02:45:26.722Z,14.70
2018-12-31T02:48:08.947Z,10.63
2018-12-31T02:50:50.831Z,12.40
2018-12-31T02:53:32.694Z,9.33
2018-12-31T02:56:14.775Z,11.80
2018-12-31T02:58:56.571Z,10.17
2018-12-31T03:01:38.872Z,6.50
2018-12-31T03:04:20.709Z,8.60
2018-12-31T03:07:03.078Z,10.73
2018-12-31T03:09:45.518Z,11.93
2018-12-31T03:12:27.439Z,7.40
2018-12-31T03:15:09.762Z,7.73
2018-12-31T03:17:52.093Z,7.37
2018-12-31T03:20:34.029Z,7.67
2018-12-31T03:23:16.211Z,5.93
2018-12-31T03:25:58.019Z,7.77
2018-12-31T03:28:40.220Z,7.83
2018-12-31T03:31:22.545Z,8.53
2018-12-31T03:34:04.836Z,7.97
2018-12-31T03:36:47.272Z,9.63
2018-12-31T03:39:28.984Z,12.93
2018-12-31T03:42:11.183Z,10.37
2018-12-31T03:44:53.355Z,13.80
2018-12-31T03:47:35.441Z,12.00
2018-12-31T03:50:17.467Z,11.70
2018-12-31T03:52:59.641Z,16.57
2018-12-31T03:55:41.451Z,10.30
2018-12-31T03:58:23.658Z,11.30
2018-12-31T04:01:06.086Z,7.50
2018-12-31T04:03:48.564Z,8.17
2018-12-31T04:06:30.559Z,8.30
2018-12-31T04:09:12.253Z,10.27
2018-12-31T04:11:42.770Z,9.40
2018-12-31T04:14:32.203Z,9.07
2018-12-31T04:17:14.363Z,12.53
2018-12-31T04:19:56.687Z,11.63
2018-12-31T04:22:39.410Z,9.57
2018-12-31T04:25:21.245Z,10.07
2018-12-31T04:27:51.819Z,7.67
2018-12-31T04:30:41.441Z,8.70
2018-12-31T04:33:23.760Z,8.53
2018-12-31T04:36:05.891Z,9.40
2018-12-31T04:38:48.027Z,7.20
2018-12-31T04:41:29.996Z,8.53
2018-12-31T04:44:12.086Z,9.77
2018-12-31T04:46:54.477Z,9.10
2018-12-31T04:49:25.127Z,10.43
2018-12-31T04:51:55.427Z,8.50
2018-12-31T04:54:37.507Z,9.00
2018-12-31T04:57:19.520Z,10.30
2018-12-31T05:00:01.508Z,11.70
2018-12-31T05:02:43.952Z,14.77
2018-12-31T05:05:26.071Z,15.67
2018-12-31T05:08:08.431Z,16.57
2018-12-31T05:10:38.858Z,15.77
2018-12-31T05:13:28.436Z,14.77
2018-12-31T05:16:10.476Z,16.47
2018-12-31T05:18:52.528Z,15.63
2018-12-31T05:21:34.855Z,13.83
2018-12-31T05:24:17.256Z,16.73
2018-12-31T05:26:59.689Z,14.77
2018-12-31T05:29:41.923Z,12.23
2018-12-31T05:32:24.099Z,15.37
2018-12-31T05:35:06.431Z,15.70
2018-12-31T05:37:48.379Z,17.47
2018-12-31T05:40:30.384Z,18.23
2018-12-31T05:43:12.567Z,16.20
2018-12-31T05:45:54.843Z,14.93
2018-12-31T05:48:36.851Z,17.93
2018-12-31T05:51:18.560Z,17.90
2018-12-31T05:54:00.945Z,17.07
2018-12-31T05:56:42.893Z,18.40
2018-12-31T05:59:25.383Z,19.63
2018-12-31T06:01:56.280Z,18.70
2018-12-31T06:04:38.659Z,16.93
2018-12-31T06:07:20.687Z,16.57
2018-12-31T06:10:02.571Z,19.83
2018-12-31T06:12:44.741Z,16.43
2018-12-31T06:15:27.022Z,23.37
2018-12-31T06:17:57.770Z,18.57
2018-12-31T06:20:39.775Z,20.63
2018-12-31T06:23:21.758Z,19.57
2018-12-31T06:26:04.321Z,17.77
2018-12-31T06:28:46.500Z,22.70
2018-12-31T06:31:28.199Z,17.13
2018-12-31T06:33:58.983Z,20.70
2018-12-31T06:36:40.606Z,18.07
2018-12-31T06:39:22.903Z,19.73
2018-12-31T06:41:53.403Z,19.43
2018-12-31T06:44:43.028Z,19.87
2018-12-31T06:47:25.191Z,21.40
2018-12-31T06:50:07.427Z,21.27
2018-12-31T06:52:49.651Z,20.47
2018-12-31T06:55:31.547Z,20.13
2018-12-31T06:58:13.656Z,19.93
2018-12-31T07:00:56.082Z,18.20
2018-12-31T07:03:38.456Z,20.37
2018-12-31T07:06:20.626Z,23.67
2018-12-31T07:09:02.503Z,21.80
2018-12-31T07:11:44.718Z,21.30
2018-12-31T07:14:26.883Z,22.80
2018-12-31T07:17:09.324Z,22.87
2018-12-31T07:19:51.365Z,21.03
2018-12-31T07:22:33.693Z,21.10
2018-12-31T07:25:15.975Z,21.07
2018-12-31T07:27:46.482Z,21.83
2018-12-31T07:30:16.963Z,20.33
2018-12-31T07:32:59.383Z,22.53
2018-12-31T07:35:43.603Z,24.30
2018-12-31T07:38:25.861Z,19.90
2018-12-31T07:41:08.088Z,18.83
2018-12-31T07:43:50.367Z,16.53
2018-12-31T07:46:32.451Z,18.77
2018-12-31T07:49:16.476Z,16.17
2018-12-31T07:51:58.831Z,17.47
2018-12-31T07:54:41.252Z,16.40
2018-12-31T07:57:23.764Z,20.25
2018-12-31T07:59:54.167Z,18.43
2018-12-31T08:02:36.483Z,18.33
2018-12-31T08:05:18.574Z,15.30
2018-12-31T08:08:00.907Z,16.33
2018-12-31T08:10:42.911Z,17.77
2018-12-31T08:13:25.187Z,15.50
2018-12-31T08:16:05.999Z,15.87
2018-12-31T08:18:46.915Z,16.87
2018-12-31T08:21:29.019Z,18.70
2018-12-31T08:24:11.035Z,19.10
2018-12-31T08:26:53.303Z,18.40
2018-12-31T08:29:35.484Z,16.43
2018-12-31T08:32:17.305Z,18.03
2018-12-31T08:34:59.526Z,17.07
2018-12-31T08:37:41.773Z,16.37
2018-12-31T08:40:24.183Z,15.20
2018-12-31T08:43:06.556Z,15.77
2018-12-31T08:45:48.407Z,15.03
2018-12-31T08:48:30.288Z,16.10
2018-12-31T08:51:01.171Z,15.77
2018-12-31T08:53:50.727Z,15.70
2018-12-31T08:56:33.395Z,16.77
2018-12-31T08:59:15.811Z,14.07
2018-12-31T09:01:58.004Z,16.90
2018-12-31T09:04:40.383Z,15.33
2018-12-31T09:07:22.482Z,14.10
2018-12-31T09:10:05.774Z,16.47
2018-12-31T09:12:47.427Z,13.90
2018-12-31T09:15:29.515Z,13.47
2018-12-31T09:18:11.887Z,14.23
2018-12-31T09:20:53.894Z,14.73
2018-12-31T09:23:36.129Z,13.10
2018-12-31T09:26:18.451Z,14.37
2018-12-31T09:29:00.387Z,15.63
2018-12-31T09:31:42.456Z,17.80
2018-12-31T09:34:24.559Z,18.93
2018-12-31T09:37:06.643Z,19.47
2018-12-31T09:39:48.467Z,15.27
2018-12-31T09:42:30.544Z,19.27
2018-12-31T09:45:12.663Z,18.23
2018-12-31T09:47:54.831Z,19.43
2018-12-31T09:50:36.986Z,21.20
2018-12-31T09:53:07.779Z,23.87
2018-12-31T09:55:50.140Z,15.30
2018-12-31T09:58:31.968Z,15.47
2018-12-31T10:01:14.318Z,14.97
2018-12-31T10:03:56.675Z,13.10
2018-12-31T10:06:39.091Z,10.23
2018-12-31T10:09:21.341Z,10.27
2018-12-31T10:12:03.363Z,14.90
2018-12-31T10:14:45.946Z,16.37
2018-12-31T10:17:27.607Z,18.03
2018-12-31T10:20:09.348Z,13.07
2018-12-31T10:22:52.437Z,16.27
2018-12-31T10:25:34.475Z,10.77
2018-12-31T10:28:16.671Z,10.67
2018-12-31T10:30:58.709Z,15.73
2018-12-31T10:33:40.387Z,13.67
2018-12-31T10:36:22.283Z,13.77
2018-12-31T10:39:04.905Z,13.43
2018-12-31T10:41:47.002Z,12.33
2018-12-31T10:44:17.439Z,13.20
2018-12-31T10:46:48.028Z,18.77
2018-12-31T10:49:30.375Z,15.93
2018-12-31T10:52:12.495Z,18.40
2018-12-31T10:54:54.747Z,18.77
2018-12-31T10:57:36.774Z,13.13
2018-12-31T11:00:19.371Z,22.17
2018-12-31T11:03:01.692Z,17.77
2018-12-31T11:05:43.894Z,17.97
2018-12-31T11:08:26.031Z,19.30
2018-12-31T11:11:08.611Z,15.90
2018-12-31T11:13:50.728Z,17.83
2018-12-31T11:16:33.067Z,21.17
2018-12-31T11:19:15.320Z,16.87
2018-12-31T11:21:57.706Z,22.57
2018-12-31T11:24:39.871Z,21.40
2018-12-31T11:27:21.762Z,20.57
2018-12-31T11:29:52.338Z,16.90
2018-12-31T11:32:34.573Z,16.00
2018-12-31T11:35:16.391Z,17.20
2018-12-31T11:37:58.631Z,21.27
2018-12-31T11:40:40.738Z,20.63
2018-12-31T11:43:22.831Z,26.73
2018-12-31T11:45:53.364Z,45.30
2018-12-31T11:48:34.131Z,29.60
2018-12-31T11:51:16.080Z,49.47
2018-12-31T11:53:58.691Z,50.93
2018-12-31T11:56:41.039Z,66.83
2018-12-31T11:59:21.735Z,54.97
2018-12-31T12:01:52.295Z,38.93
2018-12-31T12:04:34.577Z,64.00
2018-12-31T12:07:16.626Z,49.03
2018-12-31T12:09:59.607Z,55.87
2018-12-31T12:12:41.528Z,43.87
2018-12-31T12:15:23.623Z,51.37
2018-12-31T12:18:05.819Z,38.07
2018-12-31T12:20:48.272Z,44.60
2018-12-31T12:23:30.676Z,43.47
2018-12-31T12:26:15.907Z,38.77
2018-12-31T12:28:58.025Z,52.33
2018-12-31T12:31:40.402Z,41.77
2018-12-31T12:34:23.099Z,40.13
2018-12-31T12:37:05.395Z,31.17
2018-12-31T12:39:47.411Z,30.13
2018-12-31T12:42:17.922Z,59.57
2018-12-31T12:45:07.351Z,48.03
2018-12-31T12:47:49.900Z,54.00
2018-12-31T12:50:20.739Z,78.37
2018-12-31T12:53:03.299Z,73.67
2018-12-31T12:55:45.551Z,89.57
2018-12-31T12:58:27.845Z,78.27
2018-12-31T13:01:11.040Z,99.87
2018-12-31T13:03:53.314Z,79.53
2018-12-31T13:06:35.307Z,69.13
2018-12-31T13:09:17.747Z,42.20
2018-12-31T13:11:48.140Z,33.93
2018-12-31T13:14:29.820Z,26.97
2018-12-31T13:17:11.930Z,25.80
2018-12-31T13:19:54.451Z,23.67
2018-12-31T13:22:36.618Z,23.50
2018-12-31T13:25:07.094Z,25.07
2018-12-31T13:27:37.522Z,26.10
2018-12-31T13:30:17.079Z,28.50
2018-12-31T13:32:59.518Z,24.50
2018-12-31T13:35:41.347Z,24.60
2018-12-31T13:38:23.298Z,30.07
2018-12-31T13:41:05.778Z,24.90
2018-12-31T13:43:36.195Z,30.43
2018-12-31T13:46:25.572Z,23.83
2018-12-31T13:52:06.255Z,32.03
2018-12-31T13:54:47.863Z,26.87
2018-12-31T13:57:30.287Z,33.83
2018-12-31T14:00:12.063Z,27.83
2018-12-31T14:02:53.811Z,27.40
2018-12-31T14:08:19.285Z,21.03
2018-12-31T14:11:00.636Z,23.67
2018-12-31T14:13:43.083Z,33.13
2018-12-31T14:16:25.032Z,23.70
2018-12-31T14:19:07.183Z,25.87
2018-12-31T14:21:49.213Z,26.83
2018-12-31T14:24:30.159Z,32.60
2018-12-31T14:27:12.011Z,24.73
2018-12-31T14:29:54.657Z,24.30
2018-12-31T14:32:36.592Z,30.50
2018-12-31T14:35:20.011Z,45.83
2018-12-31T14:38:00.739Z,37.00
2018-12-31T14:40:43.202Z,31.03
2018-12-31T14:43:25.451Z,34.17
2018-12-31T14:46:07.628Z,35.73
2018-12-31T14:48:49.664Z,25.20
2018-12-31T14:51:31.959Z,27.70
2018-12-31T14:54:13.210Z,29.07
2018-12-31T14:56:55.138Z,28.23
2018-12-31T14:59:37.292Z,26.97
2018-12-31T15:02:19.795Z,34.07
2018-12-31T15:04:51.110Z,59.40
2018-12-31T15:07:33.076Z,37.20
2018-12-31T15:10:15.456Z,37.33
2018-12-31T15:12:45.916Z,26.00
2018-12-31T15:15:35.449Z,28.93
2018-12-31T15:18:17.224Z,26.67
2018-12-31T15:20:59.062Z,27.97
2018-12-31T15:23:41.375Z,26.77
2018-12-31T15:26:23.517Z,27.73
2018-12-31T15:29:05.505Z,28.20
2018-12-31T15:31:47.605Z,30.50
2018-12-31T15:34:18.235Z,29.27
2018-12-31T15:37:07.664Z,29.67
2018-12-31T15:39:49.898Z,35.90
2018-12-31T15:42:32.076Z,27.77
2018-12-31T15:45:14.335Z,37.50
2018-12-31T15:47:57.398Z,37.50
2018-12-31T15:50:39.865Z,28.53
2018-12-31T15:53:22.739Z,55.77
2018-12-31T15:56:04.900Z,27.67
2018-12-31T15:58:46.645Z,27.03
2018-12-31T16:01:28.435Z,28.60
2018-12-31T16:04:10.459Z,27.37
2018-12-31T16:06:52.472Z,28.43
2018-12-31T16:09:34.958Z,29.07
2018-12-31T16:12:16.916Z,32.47
2018-12-31T16:17:36.615Z,31.53
2018-12-31T16:20:18.089Z,25.77
2018-12-31T16:22:59.225Z,33.13
2018-12-31T16:25:40.968Z,31.17
2018-12-31T16:28:11.417Z,38.87
2018-12-31T16:30:42.055Z,33.80
2018-12-31T16:33:25.089Z,33.20
2018-12-31T16:36:07.483Z,32.67
2018-12-31T16:38:49.244Z,38.77
2018-12-31T16:41:31.500Z,37.70
2018-12-31T16:44:13.420Z,40.27
2018-12-31T16:46:55.653Z,37.90
2018-12-31T16:49:37.983Z,44.10
2018-12-31T16:52:19.606Z,42.53
2018-12-31T16:55:01.534Z,40.50
2018-12-31T16:57:44.115Z,41.97
2018-12-31T17:00:26.828Z,42.20
2018-12-31T17:03:09.055Z,36.67
2018-12-31T17:05:51.488Z,32.63
2018-12-31T17:08:33.699Z,31.53
2018-12-31T17:11:16.428Z,20.00
2018-12-31T17:13:58.745Z,24.17
2018-12-31T17:16:40.983Z,29.93
2018-12-31T17:19:23.405Z,37.83
2018-12-31T17:22:05.518Z,53.57
2018-12-31T17:24:47.080Z,38.53
2018-12-31T17:27:29.416Z,43.60
2018-12-31T17:30:11.488Z,46.20
2018-12-31T17:32:53.603Z,37.03
2018-12-31T17:35:35.789Z,35.13
2018-12-31T17:38:18.143Z,30.73
2018-12-31T17:41:00.444Z,32.63
2018-12-31T17:43:42.511Z,31.70
2018-12-31T17:46:25.116Z,32.40
2018-12-31T17:49:07.411Z,39.03
2018-12-31T17:51:55.702Z,38.43
2018-12-31T17:54:33.679Z,40.77
2018-12-31T17:57:15.876Z,42.43
2018-12-31T17:59:57.570Z,32.73
2018-12-31T18:02:39.939Z,36.77
2018-12-31T18:05:22.103Z,35.80
2018-12-31T18:08:04.428Z,37.67
2018-12-31T18:10:46.764Z,29.53
2018-12-31T18:13:28.803Z,32.33
2018-12-31T18:16:10.812Z,32.50
2018-12-31T18:18:52.764Z,28.30
2018-12-31T18:21:34.631Z,29.97
2018-12-31T18:24:16.676Z,24.57
2018-12-31T18:26:59.371Z,29.50
2018-12-31T18:29:30.107Z,31.33
2018-12-31T18:32:12.263Z,26.87
2018-12-31T18:34:54.561Z,23.63
2018-12-31T18:37:41.657Z,23.80
2018-12-31T18:40:22.325Z,27.63
2018-12-31T18:43:04.312Z,26.03
2018-12-31T18:45:46.003Z,25.03
2018-12-31T18:48:27.971Z,27.30
2018-12-31T18:51:09.924Z,27.03
2018-12-31T18:53:52.215Z,29.50
2018-12-31T18:56:34.426Z,31.33
2018-12-31T18:59:16.617Z,25.60
2018-12-31T19:01:58.416Z,29.43
2018-12-31T19:04:40.479Z,27.37
2018-12-31T19:07:22.376Z,29.90
2018-12-31T19:10:04.307Z,31.03
2018-12-31T19:12:46.512Z,38.40
2018-12-31T19:15:28.797Z,41.23
2018-12-31T19:18:10.651Z,46.73
2018-12-31T19:20:52.783Z,34.57
2018-12-31T19:23:35.207Z,44.17
2018-12-31T19:26:05.656Z,26.93
2018-12-31T19:28:36.300Z,32.73
2018-12-31T19:31:25.911Z,28.30
2018-12-31T19:34:07.504Z,29.23
2018-12-31T19:36:49.635Z,30.23
2018-12-31T19:39:20.203Z,26.10
2018-12-31T19:42:09.644Z,32.13
2018-12-31T19:44:40.131Z,28.83
2018-12-31T19:47:29.815Z,31.97
2018-12-31T19:50:12.242Z,26.20
2018-12-31T19:52:54.513Z,27.07
2018-12-31T19:55:36.823Z,27.43
2018-12-31T19:58:19.179Z,27.07
2018-12-31T20:01:01.870Z,31.87
2018-12-31T20:03:44.763Z,33.57
2018-12-31T20:06:26.955Z,31.33
2018-12-31T20:09:09.487Z,43.07
2018-12-31T20:11:51.366Z,28.50
2018-12-31T20:14:33.227Z,33.93
2018-12-31T20:17:15.600Z,30.90
2018-12-31T20:19:57.859Z,26.83
2018-12-31T20:22:39.793Z,27.13
2018-12-31T20:25:21.690Z,27.63
2018-12-31T20:28:06.042Z,27.03
2018-12-31T20:30:47.723Z,24.83
2018-12-31T20:33:29.996Z,38.63
2018-12-31T20:36:12.027Z,26.13
2018-12-31T20:38:54.831Z,26.40
2018-12-31T20:41:37.023Z,26.87
2018-12-31T20:44:19.147Z,31.53
2018-12-31T20:47:01.101Z,31.47
2018-12-31T20:49:43.215Z,23.30
2018-12-31T20:52:25.667Z,28.27
2018-12-31T20:55:07.531Z,51.43
2018-12-31T20:57:49.838Z,30.60
2018-12-31T21:00:32.224Z,25.60
2018-12-31T21:03:13.903Z,28.73
2018-12-31T21:05:56.329Z,21.93
2018-12-31T21:08:38.505Z,33.63
2018-12-31T21:11:20.817Z,34.23
2018-12-31T21:14:03.291Z,29.47
2018-12-31T21:16:44.911Z,25.67
2018-12-31T21:19:26.963Z,29.23
2018-12-31T21:22:09.075Z,33.27
2018-12-31T21:24:51.403Z,35.00
2018-12-31T21:27:33.606Z,30.87
2018-12-31T21:30:15.731Z,34.57
2018-12-31T21:32:58.194Z,33.20
2018-12-31T21:35:41.071Z,34.30
2018-12-31T21:38:23.853Z,34.63
2018-12-31T21:41:06.198Z,41.63
2018-12-31T21:43:48.200Z,37.30
2018-12-31T21:46:30.153Z,37.77
2018-12-31T21:49:12.067Z,44.80
2018-12-31T21:51:54.466Z,81.17
2018-12-31T21:54:36.598Z,60.30
2018-12-31T21:57:18.806Z,48.30
2018-12-31T22:00:00.828Z,40.90
2018-12-31T22:02:42.459Z,31.70
2018-12-31T22:05:24.911Z,52.30
2018-12-31T22:08:06.896Z,51.07
2018-12-31T22:10:48.896Z,42.77
2018-12-31T22:13:30.888Z,40.20
2018-12-31T22:16:13.079Z,42.70
2018-12-31T22:18:55.328Z,36.77
2018-12-31T22:21:25.735Z,56.18
2018-12-31T22:24:14.502Z,40.27
2018-12-31T22:29:55.783Z,44.10
2018-12-31T22:32:37.666Z,66.57
2018-12-31T22:35:19.839Z,46.90
2018-12-31T22:38:02.380Z,36.63
2018-12-31T22:40:44.555Z,49.27
2018-12-31T22:43:26.871Z,53.20
2018-12-31T22:46:09.311Z,33.50
2018-12-31T22:48:51.029Z,54.77
2018-12-31T22:51:33.091Z,42.93
2018-12-31T22:54:15.047Z,50.67
2018-12-31T22:56:57.227Z,40.90
2018-12-31T22:59:39.248Z,48.73
2018-12-31T23:02:21.653Z,54.10
2018-12-31T23:05:04.002Z,57.57
2018-12-31T23:07:46.571Z,81.83
2018-12-31T23:10:28.355Z,46.10
2018-12-31T23:13:10.247Z,54.87
2018-12-31T23:15:52.811Z,52.03
2018-12-31T23:18:35.319Z,62.83
2018-12-31T23:21:17.495Z,56.93
2018-12-31T23:23:48.168Z,49.67
2018-12-31T23:26:37.759Z,50.43
2018-12-31T23:29:19.879Z,41.83
2018-12-31T23:32:02.008Z,41.63
2018-12-31T23:34:44.564Z,42.83
2018-12-31T23:37:27.183Z,79.63
2018-12-31T23:40:09.413Z,42.80
2018-12-31T23:42:52.028Z,50.97
2018-12-31T23:45:34.260Z,41.73
2018-12-31T23:48:16.622Z,47.50
2018-12-31T23:50:58.858Z,39.10
2018-12-31T23:53:40.995Z,45.23
2018-12-31T23:56:24.623Z,48.23
2018-12-31T23:59:06.739Z,45.07
